sensor_id;sensor_type;location;lat;lon;timestamp;pressure;altitude;pressure_sealevel;temperature;humidity
76260;BME280;65076;52.362;6.588;2022-12-07T00:01:43;101690.78;;;6.25;78.62
76260;BME280;65076;52.362;6.588;2022-12-07T00:04:14;101691.59;;;6.29;78.72
76260;BME280;65076;52.362;6.588;2022-12-07T00:06:45;101686.03;;;6.41;78.70
76260;BME280;65076;52.362;6.588;2022-12-07T00:09:20;101684.81;;;6.59;77.79
76260;BME280;65076;52.362;6.588;2022-12-07T00:11:51;101687.91;;;6.37;78.05
76260;BME280;65076;52.362;6.588;2022-12-07T00:14:19;101679.34;;;6.13;79.31
76260;BME280;65076;52.362;6.588;2022-12-07T00:16:48;101689.88;;;6.26;78.19
76260;BME280;65076;52.362;6.588;2022-12-07T00:19:17;101677.63;;;6.07;78.68
76260;BME280;65076;52.362;6.588;2022-12-07T00:21:46;101682.84;;;6.18;78.60
76260;BME280;65076;52.362;6.588;2022-12-07T00:24:13;101681.97;;;6.17;78.03
76260;BME280;65076;52.362;6.588;2022-12-07T00:26:42;101680.78;;;5.77;80.00
76260;BME280;65076;52.362;6.588;2022-12-07T00:29:16;101690.41;;;5.94;79.63
76260;BME280;65076;52.362;6.588;2022-12-07T00:31:46;101682.47;;;5.85;79.12
76260;BME280;65076;52.362;6.588;2022-12-07T00:34:16;101676.88;;;6.01;78.15
76260;BME280;65076;52.362;6.588;2022-12-07T00:36:47;101672.06;;;6.19;77.93
76260;BME280;65076;52.362;6.588;2022-12-07T00:39:15;101674.28;;;5.94;77.73
76260;BME280;65076;52.362;6.588;2022-12-07T00:41:43;101667.84;;;6.05;78.02
76260;BME280;65076;52.362;6.588;2022-12-07T00:44:13;101665.28;;;5.97;77.53
76260;BME280;65076;52.362;6.588;2022-12-07T00:46:41;101666.91;;;6.07;78.15
76260;BME280;65076;52.362;6.588;2022-12-07T00:49:09;101668.75;;;6.04;77.99
76260;BME280;65076;52.362;6.588;2022-12-07T00:51:37;101668.72;;;5.45;80.53
76260;BME280;65076;52.362;6.588;2022-12-07T00:54:05;101671.91;;;5.73;79.96
76260;BME280;65076;52.362;6.588;2022-12-07T00:56:33;101666.31;;;5.90;79.04
76260;BME280;65076;52.362;6.588;2022-12-07T00:59:03;101663.81;;;5.12;81.67
76260;BME280;65076;52.362;6.588;2022-12-07T01:01:34;101660.13;;;5.82;79.83
76260;BME280;65076;52.362;6.588;2022-12-07T01:04:04;101670.41;;;5.52;79.64
76260;BME280;65076;52.362;6.588;2022-12-07T01:06:33;101657.63;;;5.70;79.95
76260;BME280;65076;52.362;6.588;2022-12-07T01:09:02;101659.44;;;5.68;79.27
76260;BME280;65076;52.362;6.588;2022-12-07T01:11:31;101657.72;;;5.65;79.90
76260;BME280;65076;52.362;6.588;2022-12-07T01:14:00;101652.38;;;5.62;80.34
76260;BME280;65076;52.362;6.588;2022-12-07T01:16:30;101660.19;;;5.79;80.16
76260;BME280;65076;52.362;6.588;2022-12-07T01:19:02;101661.88;;;5.23;81.60
76260;BME280;65076;52.362;6.588;2022-12-07T01:21:33;101660.94;;;5.27;81.00
76260;BME280;65076;52.362;6.588;2022-12-07T01:24:05;101656.84;;;5.63;81.10
76260;BME280;65076;52.362;6.588;2022-12-07T01:26:35;101658.94;;;5.41;80.40
76260;BME280;65076;52.362;6.588;2022-12-07T01:29:03;101663.19;;;5.56;80.27
76260;BME280;65076;52.362;6.588;2022-12-07T01:31:31;101662.88;;;5.16;80.36
76260;BME280;65076;52.362;6.588;2022-12-07T01:34:00;101655.13;;;5.58;79.93
76260;BME280;65076;52.362;6.588;2022-12-07T01:36:30;101664.88;;;5.65;79.75
76260;BME280;65076;52.362;6.588;2022-12-07T01:39:02;101661.47;;;5.53;79.20
76260;BME280;65076;52.362;6.588;2022-12-07T01:41:35;101658.25;;;5.26;80.04
76260;BME280;65076;52.362;6.588;2022-12-07T01:44:17;101667.91;;;5.40;79.80
76260;BME280;65076;52.362;6.588;2022-12-07T01:46:49;101664.38;;;5.38;79.30
76260;BME280;65076;52.362;6.588;2022-12-07T01:49:27;101667.97;;;5.34;79.24
76260;BME280;65076;52.362;6.588;2022-12-07T01:52:10;101669.59;;;5.49;78.90
76260;BME280;65076;52.362;6.588;2022-12-07T01:54:44;101661.41;;;5.55;78.38
76260;BME280;65076;52.362;6.588;2022-12-07T01:57:19;101662.53;;;5.40;79.07
76260;BME280;65076;52.362;6.588;2022-12-07T01:59:49;101661.78;;;5.29;79.38
76260;BME280;65076;52.362;6.588;2022-12-07T02:02:22;101668.56;;;4.89;80.53
76260;BME280;65076;52.362;6.588;2022-12-07T02:04:55;101656.34;;;5.35;79.42
76260;BME280;65076;52.362;6.588;2022-12-07T02:07:24;101664.00;;;4.97;79.70
76260;BME280;65076;52.362;6.588;2022-12-07T02:09:54;101657.50;;;5.16;79.35
76260;BME280;65076;52.362;6.588;2022-12-07T02:12:22;101661.69;;;5.38;78.72
76260;BME280;65076;52.362;6.588;2022-12-07T02:14:52;101662.66;;;5.31;79.42
76260;BME280;65076;52.362;6.588;2022-12-07T02:17:25;101657.44;;;5.21;79.48
76260;BME280;65076;52.362;6.588;2022-12-07T02:20:25;101664.22;;;5.49;79.88
76260;BME280;65076;52.362;6.588;2022-12-07T02:23:14;101652.75;;;5.36;80.46
76260;BME280;65076;52.362;6.588;2022-12-07T02:29:50;101661.91;;;5.81;78.99
76260;BME280;65076;52.362;6.588;2022-12-07T02:32:33;101657.06;;;5.46;79.14
76260;BME280;65076;52.362;6.588;2022-12-07T02:35:12;101661.84;;;5.25;79.65
76260;BME280;65076;52.362;6.588;2022-12-07T02:37:55;101656.03;;;5.58;79.16
76260;BME280;65076;52.362;6.588;2022-12-07T02:40:33;101650.00;;;5.39;79.40
76260;BME280;65076;52.362;6.588;2022-12-07T02:43:08;101656.75;;;5.05;79.51
76260;BME280;65076;52.362;6.588;2022-12-07T02:45:42;101653.78;;;5.26;79.68
76260;BME280;65076;52.362;6.588;2022-12-07T02:48:14;101648.72;;;5.68;78.33
76260;BME280;65076;52.362;6.588;2022-12-07T02:50:45;101652.59;;;5.47;78.86
76260;BME280;65076;52.362;6.588;2022-12-07T02:53:29;101661.63;;;5.41;78.44
76260;BME280;65076;52.362;6.588;2022-12-07T02:56:05;101654.38;;;5.49;78.45
76260;BME280;65076;52.362;6.588;2022-12-07T02:58:48;101652.38;;;5.61;79.07
76260;BME280;65076;52.362;6.588;2022-12-07T03:01:36;101657.63;;;5.70;78.86
76260;BME280;65076;52.362;6.588;2022-12-07T03:04:29;101661.31;;;5.64;78.44
76260;BME280;65076;52.362;6.588;2022-12-07T03:07:11;101654.91;;;5.71;78.07
76260;BME280;65076;52.362;6.588;2022-12-07T03:09:52;101654.06;;;5.69;77.91
76260;BME280;65076;52.362;6.588;2022-12-07T03:12:31;101647.59;;;5.20;77.87
76260;BME280;65076;52.362;6.588;2022-12-07T03:15:07;101653.09;;;5.73;77.83
76260;BME280;65076;52.362;6.588;2022-12-07T03:17:42;101653.66;;;5.35;78.54
76260;BME280;65076;52.362;6.588;2022-12-07T03:20:17;101657.22;;;5.37;78.84
76260;BME280;65076;52.362;6.588;2022-12-07T03:22:49;101661.00;;;5.21;79.40
76260;BME280;65076;52.362;6.588;2022-12-07T03:25:21;101657.81;;;4.92;80.08
76260;BME280;65076;52.362;6.588;2022-12-07T03:27:52;101643.72;;;4.73;81.61
76260;BME280;65076;52.362;6.588;2022-12-07T03:30:28;101639.91;;;4.92;81.51
76260;BME280;65076;52.362;6.588;2022-12-07T03:33:07;101633.38;;;5.13;81.35
76260;BME280;65076;52.362;6.588;2022-12-07T03:35:40;101626.75;;;5.41;80.60
76260;BME280;65076;52.362;6.588;2022-12-07T03:38:16;101634.66;;;4.85;81.27
76260;BME280;65076;52.362;6.588;2022-12-07T03:40:54;101619.41;;;5.54;80.94
76260;BME280;65076;52.362;6.588;2022-12-07T03:43:28;101616.47;;;5.08;80.38
76260;BME280;65076;52.362;6.588;2022-12-07T03:46:05;101627.03;;;5.20;80.86
76260;BME280;65076;52.362;6.588;2022-12-07T03:48:47;101627.47;;;5.51;79.33
76260;BME280;65076;52.362;6.588;2022-12-07T03:51:27;101630.00;;;5.62;79.27
76260;BME280;65076;52.362;6.588;2022-12-07T03:54:07;101623.97;;;5.47;79.50
76260;BME280;65076;52.362;6.588;2022-12-07T03:56:39;101631.84;;;5.60;78.72
76260;BME280;65076;52.362;6.588;2022-12-07T03:59:10;101630.63;;;5.79;79.05
76260;BME280;65076;52.362;6.588;2022-12-07T04:01:41;101629.81;;;5.74;78.98
76260;BME280;65076;52.362;6.588;2022-12-07T04:04:11;101626.03;;;5.90;78.12
76260;BME280;65076;52.362;6.588;2022-12-07T04:06:39;101633.16;;;5.91;77.89
76260;BME280;65076;52.362;6.588;2022-12-07T04:09:07;101626.47;;;6.16;76.90
76260;BME280;65076;52.362;6.588;2022-12-07T04:11:35;101628.53;;;6.01;76.82
76260;BME280;65076;52.362;6.588;2022-12-07T04:14:03;101624.22;;;5.90;76.53
76260;BME280;65076;52.362;6.588;2022-12-07T04:16:46;101624.97;;;5.99;76.73
76260;BME280;65076;52.362;6.588;2022-12-07T04:19:17;101620.16;;;5.64;77.24
76260;BME280;65076;52.362;6.588;2022-12-07T04:21:47;101625.25;;;5.80;77.53
76260;BME280;65076;52.362;6.588;2022-12-07T04:24:15;101612.50;;;5.94;76.68
76260;BME280;65076;52.362;6.588;2022-12-07T04:26:44;101620.69;;;5.87;77.02
76260;BME280;65076;52.362;6.588;2022-12-07T04:29:13;101614.13;;;5.46;77.71
76260;BME280;65076;52.362;6.588;2022-12-07T04:31:42;101623.72;;;5.64;77.56
76260;BME280;65076;52.362;6.588;2022-12-07T04:34:11;101618.19;;;5.73;76.58
76260;BME280;65076;52.362;6.588;2022-12-07T04:36:42;101630.75;;;5.08;79.00
76260;BME280;65076;52.362;6.588;2022-12-07T04:39:13;101619.50;;;5.46;79.13
76260;BME280;65076;52.362;6.588;2022-12-07T04:41:47;101620.13;;;5.02;79.65
76260;BME280;65076;52.362;6.588;2022-12-07T04:44:16;101619.19;;;5.06;79.12
76260;BME280;65076;52.362;6.588;2022-12-07T04:46:45;101628.97;;;5.09;79.02
76260;BME280;65076;52.362;6.588;2022-12-07T04:49:14;101623.81;;;4.94;80.30
76260;BME280;65076;52.362;6.588;2022-12-07T04:51:45;101620.84;;;5.17;80.62
76260;BME280;65076;52.362;6.588;2022-12-07T04:54:14;101622.56;;;5.19;79.83
76260;BME280;65076;52.362;6.588;2022-12-07T04:56:43;101618.09;;;5.20;79.87
76260;BME280;65076;52.362;6.588;2022-12-07T04:59:12;101618.25;;;5.09;79.41
76260;BME280;65076;52.362;6.588;2022-12-07T05:01:41;101612.28;;;5.50;78.22
76260;BME280;65076;52.362;6.588;2022-12-07T05:04:10;101616.16;;;5.32;78.22
76260;BME280;65076;52.362;6.588;2022-12-07T05:06:38;101625.09;;;5.30;78.54
76260;BME280;65076;52.362;6.588;2022-12-07T05:09:07;101609.66;;;5.48;77.80
76260;BME280;65076;52.362;6.588;2022-12-07T05:11:35;101614.38;;;5.31;78.45
76260;BME280;65076;52.362;6.588;2022-12-07T05:14:09;101608.94;;;5.36;77.36
76260;BME280;65076;52.362;6.588;2022-12-07T05:16:40;101615.47;;;5.18;78.70
76260;BME280;65076;52.362;6.588;2022-12-07T05:19:10;101612.94;;;5.07;79.19
76260;BME280;65076;52.362;6.588;2022-12-07T05:21:39;101613.41;;;5.35;78.50
76260;BME280;65076;52.362;6.588;2022-12-07T05:24:12;101608.50;;;5.65;77.55
76260;BME280;65076;52.362;6.588;2022-12-07T05:26:41;101613.75;;;5.11;77.99
76260;BME280;65076;52.362;6.588;2022-12-07T05:29:11;101615.84;;;5.53;77.33
76260;BME280;65076;52.362;6.588;2022-12-07T05:31:40;101606.75;;;5.61;76.51
76260;BME280;65076;52.362;6.588;2022-12-07T05:34:09;101622.09;;;5.54;76.10
76260;BME280;65076;52.362;6.588;2022-12-07T05:36:37;101622.25;;;5.42;76.77
76260;BME280;65076;52.362;6.588;2022-12-07T05:39:05;101615.94;;;5.44;77.41
76260;BME280;65076;52.362;6.588;2022-12-07T05:41:34;101626.00;;;5.32;77.85
76260;BME280;65076;52.362;6.588;2022-12-07T05:44:20;101619.53;;;5.45;77.99
76260;BME280;65076;52.362;6.588;2022-12-07T05:46:48;101617.72;;;5.47;77.41
76260;BME280;65076;52.362;6.588;2022-12-07T05:49:16;101624.56;;;4.29;80.28
76260;BME280;65076;52.362;6.588;2022-12-07T05:51:44;101616.91;;;4.75;79.59
76260;BME280;65076;52.362;6.588;2022-12-07T05:54:11;101611.91;;;5.16;79.64
76260;BME280;65076;52.362;6.588;2022-12-07T05:56:41;101614.13;;;4.82;79.92
76260;BME280;65076;52.362;6.588;2022-12-07T05:59:09;101615.25;;;4.64;80.99
76260;BME280;65076;52.362;6.588;2022-12-07T06:01:55;101604.72;;;5.18;79.65
76260;BME280;65076;52.362;6.588;2022-12-07T06:04:24;101603.19;;;4.97;79.20
76260;BME280;65076;52.362;6.588;2022-12-07T06:06:54;101601.75;;;4.72;81.18
76260;BME280;65076;52.362;6.588;2022-12-07T06:09:24;101601.31;;;5.07;79.72
76260;BME280;65076;52.362;6.588;2022-12-07T06:11:54;101595.06;;;5.05;79.29
76260;BME280;65076;52.362;6.588;2022-12-07T06:14:41;101603.25;;;4.93;79.13
76260;BME280;65076;52.362;6.588;2022-12-07T06:17:10;101607.84;;;4.86;80.18
76260;BME280;65076;52.362;6.588;2022-12-07T06:19:40;101606.06;;;4.84;79.35
76260;BME280;65076;52.362;6.588;2022-12-07T06:22:08;101601.72;;;4.74;80.01
76260;BME280;65076;52.362;6.588;2022-12-07T06:24:38;101599.81;;;4.82;79.52
76260;BME280;65076;52.362;6.588;2022-12-07T06:27:09;101605.47;;;4.59;80.33
76260;BME280;65076;52.362;6.588;2022-12-07T06:29:37;101608.63;;;4.93;79.90
76260;BME280;65076;52.362;6.588;2022-12-07T06:32:05;101605.13;;;4.88;79.56
76260;BME280;65076;52.362;6.588;2022-12-07T06:34:33;101605.78;;;5.05;78.42
76260;BME280;65076;52.362;6.588;2022-12-07T06:37:01;101605.19;;;4.82;78.64
76260;BME280;65076;52.362;6.588;2022-12-07T06:39:30;101603.16;;;5.02;78.36
76260;BME280;65076;52.362;6.588;2022-12-07T06:41:58;101604.34;;;4.80;79.16
76260;BME280;65076;52.362;6.588;2022-12-07T06:44:28;101607.78;;;4.88;77.54
76260;BME280;65076;52.362;6.588;2022-12-07T06:46:55;101610.53;;;4.85;78.13
76260;BME280;65076;52.362;6.588;2022-12-07T06:49:43;101610.13;;;5.15;77.08
76260;BME280;65076;52.362;6.588;2022-12-07T06:52:11;101616.09;;;4.66;78.68
76260;BME280;65076;52.362;6.588;2022-12-07T06:54:39;101600.78;;;4.78;79.04
76260;BME280;65076;52.362;6.588;2022-12-07T06:57:07;101607.66;;;4.23;81.21
76260;BME280;65076;52.362;6.588;2022-12-07T06:59:36;101620.16;;;4.99;79.29
76260;BME280;65076;52.362;6.588;2022-12-07T07:02:04;101616.66;;;4.93;77.90
76260;BME280;65076;52.362;6.588;2022-12-07T07:04:32;101629.47;;;4.69;79.63
76260;BME280;65076;52.362;6.588;2022-12-07T07:07:00;101629.44;;;4.73;78.73
76260;BME280;65076;52.362;6.588;2022-12-07T07:09:28;101623.00;;;4.87;79.55
76260;BME280;65076;52.362;6.588;2022-12-07T07:11:56;101629.25;;;4.88;79.46
76260;BME280;65076;52.362;6.588;2022-12-07T07:14:24;101635.50;;;4.90;80.02
76260;BME280;65076;52.362;6.588;2022-12-07T07:16:53;101627.19;;;5.08;79.75
76260;BME280;65076;52.362;6.588;2022-12-07T07:19:21;101631.91;;;4.91;80.74
76260;BME280;65076;52.362;6.588;2022-12-07T07:21:49;101624.13;;;5.35;79.22
76260;BME280;65076;52.362;6.588;2022-12-07T07:24:17;101628.88;;;5.18;79.72
76260;BME280;65076;52.362;6.588;2022-12-07T07:26:45;101624.69;;;4.94;79.54
76260;BME280;65076;52.362;6.588;2022-12-07T07:29:13;101633.22;;;5.25;79.77
76260;BME280;65076;52.362;6.588;2022-12-07T07:31:41;101621.97;;;5.60;78.76
76260;BME280;65076;52.362;6.588;2022-12-07T07:34:10;101621.47;;;4.66;81.41
76260;BME280;65076;52.362;6.588;2022-12-07T07:36:38;101625.16;;;5.27;80.38
76260;BME280;65076;52.362;6.588;2022-12-07T07:39:06;101621.13;;;5.57;79.54
76260;BME280;65076;52.362;6.588;2022-12-07T07:41:34;101632.63;;;5.66;77.86
76260;BME280;65076;52.362;6.588;2022-12-07T07:44:02;101635.47;;;5.55;77.78
76260;BME280;65076;52.362;6.588;2022-12-07T07:46:30;101627.31;;;5.63;77.17
76260;BME280;65076;52.362;6.588;2022-12-07T07:48:59;101628.91;;;5.75;77.38
76260;BME280;65076;52.362;6.588;2022-12-07T07:51:28;101628.22;;;5.62;77.15
76260;BME280;65076;52.362;6.588;2022-12-07T07:53:56;101632.78;;;5.55;76.84
76260;BME280;65076;52.362;6.588;2022-12-07T07:56:24;101639.41;;;5.32;77.37
76260;BME280;65076;52.362;6.588;2022-12-07T07:58:52;101635.91;;;5.25;78.16
76260;BME280;65076;52.362;6.588;2022-12-07T08:01:20;101637.69;;;5.25;77.91
76260;BME280;65076;52.362;6.588;2022-12-07T08:03:49;101644.56;;;5.45;77.56
76260;BME280;65076;52.362;6.588;2022-12-07T08:06:17;101639.47;;;5.27;77.12
76260;BME280;65076;52.362;6.588;2022-12-07T08:08:47;101641.41;;;5.16;77.21
76260;BME280;65076;52.362;6.588;2022-12-07T08:11:14;101648.13;;;5.49;77.26
76260;BME280;65076;52.362;6.588;2022-12-07T08:13:45;101641.88;;;5.45;76.29
76260;BME280;65076;52.362;6.588;2022-12-07T08:16:13;101645.56;;;5.98;76.52
76260;BME280;65076;52.362;6.588;2022-12-07T08:18:42;101643.03;;;5.90;75.06
76260;BME280;65076;52.362;6.588;2022-12-07T08:21:13;101645.63;;;5.95;75.32
76260;BME280;65076;52.362;6.588;2022-12-07T08:23:42;101643.91;;;6.88;73.61
76260;BME280;65076;52.362;6.588;2022-12-07T08:26:14;101639.63;;;7.20;71.17
76260;BME280;65076;52.362;6.588;2022-12-07T08:28:43;101652.31;;;7.15;70.68
76260;BME280;65076;52.362;6.588;2022-12-07T08:31:14;101646.16;;;7.87;69.27
76260;BME280;65076;52.362;6.588;2022-12-07T08:33:44;101645.59;;;8.10;68.34
76260;BME280;65076;52.362;6.588;2022-12-07T08:36:13;101647.00;;;8.26;67.77
76260;BME280;65076;52.362;6.588;2022-12-07T08:38:42;101646.50;;;7.74;69.66
76260;BME280;65076;52.362;6.588;2022-12-07T08:41:32;101651.81;;;7.77;68.77
76260;BME280;65076;52.362;6.588;2022-12-07T08:44:00;101649.63;;;8.28;67.75
76260;BME280;65076;52.362;6.588;2022-12-07T08:46:31;101645.19;;;8.61;68.42
76260;BME280;65076;52.362;6.588;2022-12-07T08:49:06;101636.13;;;9.54;64.94
76260;BME280;65076;52.362;6.588;2022-12-07T08:51:36;101648.63;;;9.29;65.59
76260;BME280;65076;52.362;6.588;2022-12-07T08:54:08;101637.06;;;9.53;64.09
76260;BME280;65076;52.362;6.588;2022-12-07T08:56:40;101646.28;;;9.17;64.50
76260;BME280;65076;52.362;6.588;2022-12-07T08:59:09;101639.78;;;9.81;64.26
76260;BME280;65076;52.362;6.588;2022-12-07T09:01:40;101633.06;;;9.37;64.33
76260;BME280;65076;52.362;6.588;2022-12-07T09:04:09;101634.41;;;8.61;65.89
76260;BME280;65076;52.362;6.588;2022-12-07T09:06:37;101645.22;;;7.90;69.10
76260;BME280;65076;52.362;6.588;2022-12-07T09:09:06;101635.97;;;8.00;68.93
76260;BME280;65076;52.362;6.588;2022-12-07T09:11:36;101637.66;;;8.05;69.35
76260;BME280;65076;52.362;6.588;2022-12-07T09:14:06;101628.78;;;8.36;68.90
76260;BME280;65076;52.362;6.588;2022-12-07T09:16:35;101635.22;;;7.95;70.18
76260;BME280;65076;52.362;6.588;2022-12-07T09:19:03;101635.72;;;8.11;70.17
76260;BME280;65076;52.362;6.588;2022-12-07T09:21:31;101636.25;;;8.25;68.88
76260;BME280;65076;52.362;6.588;2022-12-07T09:23:59;101638.16;;;7.47;70.63
76260;BME280;65076;52.362;6.588;2022-12-07T09:26:28;101635.47;;;7.84;71.00
76260;BME280;65076;52.362;6.588;2022-12-07T09:28:56;101638.84;;;7.92;70.68
76260;BME280;65076;52.362;6.588;2022-12-07T09:31:25;101632.47;;;7.96;70.22
76260;BME280;65076;52.362;6.588;2022-12-07T09:33:54;101644.38;;;7.86;70.18
76260;BME280;65076;52.362;6.588;2022-12-07T09:36:22;101642.91;;;7.35;72.20
76260;BME280;65076;52.362;6.588;2022-12-07T09:38:50;101641.19;;;7.32;71.14
76260;BME280;65076;52.362;6.588;2022-12-07T09:41:19;101653.13;;;7.96;70.77
76260;BME280;65076;52.362;6.588;2022-12-07T09:43:48;101646.69;;;8.01;69.52
76260;BME280;65076;52.362;6.588;2022-12-07T09:46:17;101646.34;;;8.52;68.18
76260;BME280;65076;52.362;6.588;2022-12-07T09:48:52;101649.88;;;8.19;69.01
76260;BME280;65076;52.362;6.588;2022-12-07T09:51:21;101652.69;;;7.77;69.88
76260;BME280;65076;52.362;6.588;2022-12-07T09:53:53;101645.34;;;8.21;69.47
76260;BME280;65076;52.362;6.588;2022-12-07T09:56:24;101651.19;;;8.02;69.83
76260;BME280;65076;52.362;6.588;2022-12-07T09:58:58;101648.75;;;7.92;70.29
76260;BME280;65076;52.362;6.588;2022-12-07T10:01:29;101640.69;;;7.90;70.42
76260;BME280;65076;52.362;6.588;2022-12-07T10:04:05;101644.25;;;7.92;70.93
76260;BME280;65076;52.362;6.588;2022-12-07T10:06:39;101643.81;;;8.11;70.03
76260;BME280;65076;52.362;6.588;2022-12-07T10:09:10;101639.81;;;8.91;68.95
76260;BME280;65076;52.362;6.588;2022-12-07T10:12:03;101629.16;;;8.21;68.92
76260;BME280;65076;52.362;6.588;2022-12-07T10:14:36;101629.13;;;8.56;68.67
76260;BME280;65076;52.362;6.588;2022-12-07T10:17:32;101618.69;;;9.37;67.08
76260;BME280;65076;52.362;6.588;2022-12-07T10:20:20;101616.47;;;9.49;66.11
76260;BME280;65076;52.362;6.588;2022-12-07T10:23:01;101617.41;;;9.48;66.68
76260;BME280;65076;52.362;6.588;2022-12-07T10:25:33;101606.16;;;9.34;66.32
76260;BME280;65076;52.362;6.588;2022-12-07T10:28:12;101615.16;;;8.42;68.60
76260;BME280;65076;52.362;6.588;2022-12-07T10:30:51;101606.47;;;8.63;69.38
76260;BME280;65076;52.362;6.588;2022-12-07T10:33:32;101611.03;;;7.92;70.31
76260;BME280;65076;52.362;6.588;2022-12-07T10:36:19;101609.03;;;8.99;67.77
76260;BME280;65076;52.362;6.588;2022-12-07T10:38:52;101596.19;;;8.76;68.00
76260;BME280;65076;52.362;6.588;2022-12-07T10:41:26;101599.91;;;8.41;68.88
76260;BME280;65076;52.362;6.588;2022-12-07T10:43:56;101590.16;;;9.26;67.74
76260;BME280;65076;52.362;6.588;2022-12-07T10:50:02;101587.63;;;9.22;67.16
76260;BME280;65076;52.362;6.588;2022-12-07T10:53:20;101586.34;;;9.63;66.64
76260;BME280;65076;52.362;6.588;2022-12-07T10:56:47;101590.16;;;8.68;68.08
76260;BME280;65076;52.362;6.588;2022-12-07T11:00:02;101577.47;;;9.58;65.05
76260;BME280;65076;52.362;6.588;2022-12-07T11:02:58;101577.06;;;9.70;65.21
76260;BME280;65076;52.362;6.588;2022-12-07T11:05:49;101567.22;;;9.41;66.65
76260;BME280;65076;52.362;6.588;2022-12-07T11:08:38;101574.28;;;9.45;65.78
76260;BME280;65076;52.362;6.588;2022-12-07T11:11:18;101570.38;;;8.98;67.31
76260;BME280;65076;52.362;6.588;2022-12-07T11:13:56;101569.94;;;9.41;65.74
76260;BME280;65076;52.362;6.588;2022-12-07T11:16:38;101559.91;;;8.86;66.14
76260;BME280;65076;52.362;6.588;2022-12-07T11:19:24;101555.69;;;9.07;66.74
76260;BME280;65076;52.362;6.588;2022-12-07T11:22:06;101556.84;;;8.69;66.81
76260;BME280;65076;52.362;6.588;2022-12-07T11:24:50;101556.16;;;8.91;67.05
76260;BME280;65076;52.362;6.588;2022-12-07T11:27:35;101556.78;;;8.70;67.42
76260;BME280;65076;52.362;6.588;2022-12-07T11:30:13;101555.53;;;8.83;67.01
76260;BME280;65076;52.362;6.588;2022-12-07T11:33:10;101547.59;;;8.77;68.14
76260;BME280;65076;52.362;6.588;2022-12-07T11:35:54;101557.06;;;7.95;69.95
76260;BME280;65076;52.362;6.588;2022-12-07T11:38:38;101549.28;;;8.81;67.62
76260;BME280;65076;52.362;6.588;2022-12-07T11:41:19;101539.31;;;9.13;66.99
76260;BME280;65076;52.362;6.588;2022-12-07T11:43:55;101535.09;;;9.60;65.97
76260;BME280;65076;52.362;6.588;2022-12-07T11:46:39;101539.22;;;9.44;66.15
76260;BME280;65076;52.362;6.588;2022-12-07T11:49:20;101530.97;;;9.74;65.37
76260;BME280;65076;52.362;6.588;2022-12-07T11:51:57;101535.72;;;9.68;65.69
76260;BME280;65076;52.362;6.588;2022-12-07T11:54:34;101524.50;;;9.26;65.88
76260;BME280;65076;52.362;6.588;2022-12-07T11:57:13;101530.31;;;9.94;64.86
76260;BME280;65076;52.362;6.588;2022-12-07T11:59:49;101526.91;;;10.14;64.32
76260;BME280;65076;52.362;6.588;2022-12-07T12:02:28;101528.22;;;10.29;63.71
76260;BME280;65076;52.362;6.588;2022-12-07T12:05:13;101528.00;;;9.84;65.85
76260;BME280;65076;52.362;6.588;2022-12-07T12:07:48;101529.53;;;9.91;66.35
76260;BME280;65076;52.362;6.588;2022-12-07T12:10:52;101526.94;;;9.61;65.87
76260;BME280;65076;52.362;6.588;2022-12-07T12:13:54;101520.97;;;9.78;65.39
76260;BME280;65076;52.362;6.588;2022-12-07T12:17:39;101519.00;;;9.57;65.60
76260;BME280;65076;52.362;6.588;2022-12-07T12:20:21;101509.31;;;9.76;64.15
76260;BME280;65076;52.362;6.588;2022-12-07T12:22:58;101514.25;;;9.90;64.26
76260;BME280;65076;52.362;6.588;2022-12-07T12:25:38;101524.63;;;10.02;64.12
76260;BME280;65076;52.362;6.588;2022-12-07T12:28:18;101507.34;;;10.06;63.98
76260;BME280;65076;52.362;6.588;2022-12-07T12:31:07;101498.56;;;9.74;64.53
76260;BME280;65076;52.362;6.588;2022-12-07T12:33:43;101496.22;;;9.10;67.14
76260;BME280;65076;52.362;6.588;2022-12-07T12:36:26;101497.81;;;8.87;68.73
76260;BME280;65076;52.362;6.588;2022-12-07T12:39:11;101490.53;;;8.31;68.85
76260;BME280;65076;52.362;6.588;2022-12-07T12:42:17;101493.31;;;8.26;70.16
76260;BME280;65076;52.362;6.588;2022-12-07T12:47:54;101487.41;;;8.12;70.17
76260;BME280;65076;52.362;6.588;2022-12-07T12:50:27;101489.91;;;8.81;68.56
76260;BME280;65076;52.362;6.588;2022-12-07T12:56:12;101485.47;;;9.08;67.84
76260;BME280;65076;52.362;6.588;2022-12-07T12:59:22;101485.44;;;8.80;69.04
76260;BME280;65076;52.362;6.588;2022-12-07T13:01:55;101483.78;;;9.32;67.09
76260;BME280;65076;52.362;6.588;2022-12-07T13:07:53;101483.06;;;8.40;68.57
76260;BME280;65076;52.362;6.588;2022-12-07T13:10:45;101479.84;;;8.86;66.80
76260;BME280;65076;52.362;6.588;2022-12-07T13:13:31;101469.56;;;8.70;66.75
76260;BME280;65076;52.362;6.588;2022-12-07T13:22:50;101456.31;;;8.91;64.93
76260;BME280;65076;52.362;6.588;2022-12-07T13:25:29;101456.81;;;8.75;64.86
76260;BME280;65076;52.362;6.588;2022-12-07T13:28:14;101453.78;;;8.85;65.01
76260;BME280;65076;52.362;6.588;2022-12-07T13:30:57;101451.84;;;9.18;63.83
76260;BME280;65076;52.362;6.588;2022-12-07T13:33:34;101447.72;;;8.79;64.80
76260;BME280;65076;52.362;6.588;2022-12-07T13:36:05;101441.94;;;8.91;65.17
76260;BME280;65076;52.362;6.588;2022-12-07T13:38:49;101443.31;;;9.04;63.79
76260;BME280;65076;52.362;6.588;2022-12-07T13:41:21;101436.50;;;8.34;65.00
76260;BME280;65076;52.362;6.588;2022-12-07T13:43:53;101436.78;;;8.83;64.77
76260;BME280;65076;52.362;6.588;2022-12-07T13:46:31;101431.03;;;8.37;65.52
76260;BME280;65076;52.362;6.588;2022-12-07T13:49:17;101429.25;;;8.95;64.16
76260;BME280;65076;52.362;6.588;2022-12-07T13:51:49;101423.63;;;9.01;64.49
76260;BME280;65076;52.362;6.588;2022-12-07T13:54:18;101435.66;;;8.90;64.64
76260;BME280;65076;52.362;6.588;2022-12-07T13:56:50;101433.03;;;8.89;65.04
76260;BME280;65076;52.362;6.588;2022-12-07T13:59:21;101422.19;;;9.43;63.14
76260;BME280;65076;52.362;6.588;2022-12-07T14:01:53;101418.34;;;8.98;64.41